createdAt,value
2018-06-08T00:00:49.191Z,1014.94
2018-06-08T00:01:49.195Z,1014.94
2018-06-08T00:02:49.133Z,1014.96
2018-06-08T00:03:49.153Z,1014.95
2018-06-08T00:04:49.125Z,1014.93
2018-06-08T00:05:49.178Z,1014.93
2018-06-08T00:06:49.564Z,1014.96
2018-06-08T00:07:49.144Z,1014.95
2018-06-08T00:08:49.197Z,1014.97
2018-06-08T00:09:49.601Z,1014.98
2018-06-08T00:10:49.472Z,1014.97
2018-06-08T00:11:49.124Z,1014.99
2018-06-08T00:12:49.165Z,1015
2018-06-08T00:13:49.144Z,1015.01
2018-06-08T00:14:49.191Z,1015.03
2018-06-08T00:15:49.219Z,1015.04
2018-06-08T00:16:49.116Z,1015.05
2018-06-08T00:17:49.210Z,1015.09
2018-06-08T00:18:49.607Z,1015.09
2018-06-08T00:19:49.171Z,1015.1
2018-06-08T00:20:49.129Z,1015.09
2018-06-08T00:21:49.195Z,1015.11
2018-06-08T00:22:49.098Z,1015.13
2018-06-08T00:23:49.160Z,1015.12
2018-06-08T00:24:49.115Z,1015.09
2018-06-08T00:25:49.111Z,1015.09
2018-06-08T00:26:49.135Z,1015.09
2018-06-08T00:27:49.122Z,1015.13
2018-06-08T00:28:49.104Z,1015.1
2018-06-08T00:29:49.107Z,1015.1
2018-06-08T00:30:49.133Z,1015.14
2018-06-08T00:31:49.123Z,1015.14
2018-06-08T00:32:49.113Z,1015.15
2018-06-08T00:33:49.418Z,1015.14
2018-06-08T00:34:49.116Z,1015.1
2018-06-08T00:35:49.115Z,1015.11
2018-06-08T00:36:49.563Z,1015.11
2018-06-08T00:37:49.120Z,1015.09
2018-06-08T00:38:49.126Z,1015.09
2018-06-08T00:39:49.125Z,1015.1
2018-06-08T00:40:49.121Z,1015.1
2018-06-08T00:41:49.129Z,1015.11
2018-06-08T00:42:49.107Z,1015.12
2018-06-08T00:43:49.119Z,1015.13
2018-06-08T00:44:49.112Z,1015.12
2018-06-08T00:45:49.121Z,1015.17
2018-06-08T00:46:49.134Z,1015.15
2018-06-08T00:47:49.254Z,1015.15
2018-06-08T00:48:49.126Z,1015.2
2018-06-08T00:49:49.920Z,1015.16
2018-06-08T00:50:50.009Z,1015.16
2018-06-08T00:51:49.978Z,1015.12
2018-06-08T00:52:49.874Z,1015.11
2018-06-08T00:53:49.908Z,1015.12
2018-06-08T00:54:49.923Z,1015.08
2018-06-08T00:55:50.226Z,1015.08
2018-06-08T00:56:49.986Z,1015.09
2018-06-08T00:57:49.830Z,1015.09
2018-06-08T00:58:49.928Z,1015.1
2018-06-08T00:59:49.923Z,1015.08
2018-06-08T01:00:49.951Z,1015.05
2018-06-08T01:01:49.909Z,1015.1
2018-06-08T01:02:49.913Z,1015.07
2018-06-08T01:03:49.896Z,1015.07
2018-06-08T01:04:49.977Z,1015.05
2018-06-08T01:05:49.871Z,1015.05
2018-06-08T01:06:49.812Z,1015.03
2018-06-08T01:07:50.026Z,1014.98
2018-06-08T01:08:50.052Z,1015.02
2018-06-08T01:09:49.928Z,1015.03
2018-06-08T01:10:49.869Z,1015.05
2018-06-08T01:11:49.915Z,1015.03
2018-06-08T01:12:49.905Z,1015.01
2018-06-08T01:13:49.888Z,1015.03
2018-06-08T01:14:49.915Z,1015.01
2018-06-08T01:15:50.026Z,1015.01
2018-06-08T01:16:49.988Z,1015
2018-06-08T01:17:49.891Z,1015
2018-06-08T01:18:49.870Z,1015
2018-06-08T01:19:50.087Z,1014.97
2018-06-08T01:20:49.817Z,1014.99
2018-06-08T01:21:49.913Z,1014.94
2018-06-08T01:22:49.983Z,1014.93
2018-06-08T01:23:49.902Z,1014.89
2018-06-08T01:24:49.884Z,1014.88
2018-06-08T01:25:50.018Z,1014.87
2018-06-08T01:26:49.893Z,1014.8
2018-06-08T01:27:49.907Z,1014.82
2018-06-08T01:28:49.895Z,1014.84
2018-06-08T01:29:49.931Z,1014.81
2018-06-08T01:30:49.939Z,1014.85
2018-06-08T01:31:49.890Z,1014.89
2018-06-08T01:32:49.876Z,1014.91
2018-06-08T01:33:49.862Z,1014.88
2018-06-08T01:34:49.840Z,1014.88
2018-06-08T01:35:49.978Z,1014.93
2018-06-08T01:36:49.972Z,1014.9
2018-06-08T01:37:49.828Z,1014.85
2018-06-08T01:38:49.881Z,1014.9
2018-06-08T01:39:49.835Z,1014.91
2018-06-08T01:40:49.819Z,1014.84
2018-06-08T01:41:49.837Z,1014.85
2018-06-08T01:42:49.882Z,1014.86
2018-06-08T01:43:49.902Z,1014.88
2018-06-08T01:44:49.839Z,1014.84
2018-06-08T01:45:49.752Z,1014.86
2018-06-08T01:46:49.878Z,1014.83
2018-06-08T01:47:49.895Z,1014.83
2018-06-08T01:48:49.849Z,1014.83
2018-06-08T01:49:49.527Z,1014.82
2018-06-08T01:50:49.103Z,1014.79
2018-06-08T01:51:49.094Z,1014.77
2018-06-08T01:52:49.110Z,1014.78
2018-06-08T01:53:49.833Z,1014.78
2018-06-08T01:54:49.090Z,1014.75
2018-06-08T01:55:49.090Z,1014.75
2018-06-08T01:56:49.079Z,1014.74
2018-06-08T01:57:49.097Z,1014.72
2018-06-08T01:58:49.916Z,1014.72
2018-06-08T01:59:49.095Z,1014.69
2018-06-08T02:00:49.160Z,1014.69
2018-06-08T02:01:49.099Z,1014.65
2018-06-08T02:02:49.107Z,1014.67
2018-06-08T02:03:49.084Z,1014.66
2018-06-08T02:04:49.092Z,1014.65
2018-06-08T02:05:49.815Z,1014.69
2018-06-08T02:06:49.081Z,1014.69
2018-06-08T02:07:49.099Z,1014.66
2018-06-08T02:08:49.099Z,1014.66
2018-06-08T02:09:49.114Z,1014.68
2018-06-08T02:10:49.121Z,1014.69
2018-06-08T02:11:49.078Z,1014.68
2018-06-08T02:12:50.014Z,1014.66
2018-06-08T02:13:49.091Z,1014.68
2018-06-08T02:14:49.130Z,1014.69
2018-06-08T02:15:49.088Z,1014.67
2018-06-08T02:16:49.401Z,1014.68
2018-06-08T02:17:49.086Z,1014.69
2018-06-08T02:18:49.082Z,1014.67
2018-06-08T02:19:49.091Z,1014.7
2018-06-08T02:20:49.086Z,1014.68
2018-06-08T02:21:49.111Z,1014.64
2018-06-08T02:22:50.078Z,1014.59
2018-06-08T02:23:49.075Z,1014.61
2018-06-08T02:24:49.107Z,1014.54
2018-06-08T02:25:49.850Z,1014.52
2018-06-08T02:26:49.088Z,1014.56
2018-06-08T02:27:49.089Z,1014.54
2018-06-08T02:28:50.046Z,1014.53
2018-06-08T02:29:49.104Z,1014.51
2018-06-08T02:30:49.170Z,1014.53
2018-06-08T02:31:49.098Z,1014.57
2018-06-08T02:32:49.070Z,1014.54
2018-06-08T02:33:49.907Z,1014.53
2018-06-08T02:34:49.107Z,1014.53
2018-06-08T02:35:49.139Z,1014.56
2018-06-08T02:36:49.065Z,1014.54
2018-06-08T02:37:50.077Z,1014.56
2018-06-08T02:38:49.112Z,1014.55
2018-06-08T02:39:49.086Z,1014.56
2018-06-08T02:40:50.090Z,1014.52
2018-06-08T02:41:49.117Z,1014.55
2018-06-08T02:42:49.098Z,1014.55
2018-06-08T02:43:49.102Z,1014.58
2018-06-08T02:44:49.106Z,1014.58
2018-06-08T02:45:49.087Z,1014.6
2018-06-08T02:46:49.065Z,1014.58
2018-06-08T02:47:49.081Z,1014.62
2018-06-08T02:48:50.687Z,1014.67
2018-06-08T02:49:49.088Z,1014.66
2018-06-08T02:50:49.084Z,1014.68
2018-06-08T02:51:49.091Z,1014.69
2018-06-08T02:52:49.097Z,1014.7
2018-06-08T02:53:49.082Z,1014.74
2018-06-08T02:54:49.091Z,1014.76
2018-06-08T02:55:49.060Z,1014.77
2018-06-08T02:56:49.076Z,1014.78
2018-06-08T02:57:49.072Z,1014.81
2018-06-08T02:58:49.101Z,1014.85
2018-06-08T02:59:49.095Z,1014.87
2018-06-08T03:00:49.071Z,1014.91
2018-06-08T03:01:49.068Z,1014.91
2018-06-08T03:02:49.088Z,1014.91
2018-06-08T03:03:49.082Z,1014.91
2018-06-08T03:04:49.096Z,1014.94
2018-06-08T03:05:49.105Z,1014.95
2018-06-08T03:06:49.095Z,1014.95
2018-06-08T03:07:49.070Z,1014.93
2018-06-08T03:08:49.133Z,1015.02
2018-06-08T03:09:49.100Z,1014.99
2018-06-08T03:10:49.161Z,1014.99
2018-06-08T03:11:49.082Z,1015.05
2018-06-08T03:12:49.364Z,1015.06
2018-06-08T03:13:49.076Z,1015.06
2018-06-08T03:14:49.067Z,1015.07
2018-06-08T03:15:49.111Z,1015.08
2018-06-08T03:16:49.084Z,1015.06
2018-06-08T03:17:49.167Z,1015.06
2018-06-08T03:18:49.047Z,1015.07
2018-06-08T03:19:49.100Z,1015.07
2018-06-08T03:20:49.106Z,1015.05
2018-06-08T03:21:49.173Z,1015.04
2018-06-08T03:22:49.101Z,1015.08
2018-06-08T03:23:49.126Z,1015.04
2018-06-08T03:24:49.226Z,1015.07
2018-06-08T03:25:49.079Z,1015.08
2018-06-08T03:26:49.049Z,1015.11
2018-06-08T03:27:49.133Z,1015.12
2018-06-08T03:28:49.223Z,1015.15
2018-06-08T03:29:49.068Z,1015.13
2018-06-08T03:30:49.078Z,1015.14
2018-06-08T03:31:49.064Z,1015.14
2018-06-08T03:32:49.043Z,1015.16
2018-06-08T03:33:49.072Z,1015.17
2018-06-08T03:34:49.125Z,1015.17
2018-06-08T03:35:49.058Z,1015.19
2018-06-08T03:36:49.056Z,1015.21
2018-06-08T03:37:49.073Z,1015.24
2018-06-08T03:38:49.064Z,1015.3
2018-06-08T03:39:49.185Z,1015.29
2018-06-08T03:40:49.047Z,1015.27
2018-06-08T03:41:49.039Z,1015.29
2018-06-08T03:42:49.103Z,1015.3
2018-06-08T03:43:49.211Z,1015.33
2018-06-08T03:44:49.069Z,1015.32
2018-06-08T03:45:49.101Z,1015.33
2018-06-08T03:46:49.052Z,1015.33
2018-06-08T03:47:49.241Z,1015.34
2018-06-08T03:48:49.058Z,1015.36
2018-06-08T03:49:49.108Z,1015.36
2018-06-08T03:50:49.077Z,1015.38
2018-06-08T03:51:49.089Z,1015.36
2018-06-08T03:52:49.167Z,1015.35
2018-06-08T03:53:49.040Z,1015.35
2018-06-08T03:54:49.193Z,1015.35
2018-06-08T03:55:49.108Z,1015.34
2018-06-08T03:56:49.164Z,1015.33
2018-06-08T03:57:49.050Z,1015.37
2018-06-08T03:58:49.043Z,1015.36
2018-06-08T03:59:49.098Z,1015.38
2018-06-08T04:00:49.068Z,1015.42
2018-06-08T04:01:49.064Z,1015.42
2018-06-08T04:02:49.040Z,1015.43
2018-06-08T04:03:49.090Z,1015.41
2018-06-08T04:04:49.037Z,1015.43
2018-06-08T04:05:49.052Z,1015.42
2018-06-08T04:06:49.063Z,1015.42
2018-06-08T04:07:49.056Z,1015.42
2018-06-08T04:08:49.041Z,1015.43
2018-06-08T04:09:49.070Z,1015.43
2018-06-08T04:10:49.044Z,1015.43
2018-06-08T04:11:49.042Z,1015.41
2018-06-08T04:12:49.049Z,1015.43
2018-06-08T04:13:49.035Z,1015.47
2018-06-08T04:14:49.048Z,1015.49
2018-06-08T04:15:49.060Z,1015.46
2018-06-08T04:16:49.051Z,1015.46
2018-06-08T04:17:49.060Z,1015.46
2018-06-08T04:18:49.061Z,1015.46
2018-06-08T04:19:49.035Z,1015.47
2018-06-08T04:20:49.043Z,1015.46
2018-06-08T04:21:49.038Z,1015.45
2018-06-08T04:22:49.176Z,1015.47
2018-06-08T04:23:49.071Z,1015.44
2018-06-08T04:24:49.039Z,1015.43
2018-06-08T04:25:49.238Z,1015.47
2018-06-08T04:26:49.148Z,1015.47
2018-06-08T04:27:49.101Z,1015.43
2018-06-08T04:28:49.081Z,1015.46
2018-06-08T04:29:49.032Z,1015.5
2018-06-08T04:30:49.060Z,1015.48
2018-06-08T04:31:49.036Z,1015.5
2018-06-08T04:32:49.424Z,1015.5
2018-06-08T04:33:49.091Z,1015.53
2018-06-08T04:34:49.258Z,1015.49
2018-06-08T04:35:49.133Z,1015.48
2018-06-08T04:36:49.071Z,1015.52
2018-06-08T04:37:49.284Z,1015.48
2018-06-08T04:38:49.044Z,1015.5
2018-06-08T04:39:49.079Z,1015.5
2018-06-08T04:40:49.118Z,1015.53
2018-06-08T04:41:49.101Z,1015.5
2018-06-08T04:42:49.044Z,1015.5
2018-06-08T04:43:49.058Z,1015.49
2018-06-08T04:44:49.067Z,1015.53
2018-06-08T04:45:49.141Z,1015.56
2018-06-08T04:46:49.130Z,1015.51
2018-06-08T04:47:49.158Z,1015.56
2018-06-08T04:48:49.064Z,1015.56
2018-06-08T04:49:49.028Z,1015.53
2018-06-08T04:50:49.200Z,1015.48
2018-06-08T04:51:51.759Z,1015.5
2018-06-08T04:52:49.061Z,1015.51
2018-06-08T04:53:49.043Z,1015.47
2018-06-08T04:54:49.165Z,1015.5
2018-06-08T04:55:49.145Z,1015.48
2018-06-08T04:56:49.117Z,1015.49
2018-06-08T04:57:49.064Z,1015.51
2018-06-08T04:58:49.071Z,1015.51
2018-06-08T04:59:49.072Z,1015.53
2018-06-08T05:00:49.035Z,1015.5
2018-06-08T05:01:49.031Z,1015.5
2018-06-08T05:02:49.039Z,1015.48
2018-06-08T05:03:49.065Z,1015.47
2018-06-08T05:04:49.047Z,1015.51
2018-06-08T05:05:49.045Z,1015.48
2018-06-08T05:06:49.047Z,1015.52
2018-06-08T05:07:49.030Z,1015.49
2018-06-08T05:08:49.044Z,1015.48
2018-06-08T05:09:49.496Z,1015.52
2018-06-08T05:10:49.016Z,1015.49
2018-06-08T05:11:49.067Z,1015.53
2018-06-08T05:12:49.016Z,1015.54
2018-06-08T05:13:49.034Z,1015.54
2018-06-08T05:14:49.037Z,1015.56
2018-06-08T05:15:50.019Z,1015.55
2018-06-08T05:16:49.027Z,1015.5
2018-06-08T05:17:49.019Z,1015.56
2018-06-08T05:18:49.009Z,1015.54
2018-06-08T05:19:49.069Z,1015.54
2018-06-08T05:20:49.040Z,1015.53
2018-06-08T05:21:49.029Z,1015.53
2018-06-08T05:22:49.087Z,1015.51
2018-06-08T05:23:49.040Z,1015.5
2018-06-08T05:24:49.039Z,1015.48
2018-06-08T05:25:49.042Z,1015.48
2018-06-08T05:26:49.035Z,1015.42
2018-06-08T05:27:49.045Z,1015.47
2018-06-08T05:28:49.055Z,1015.45
2018-06-08T05:29:49.029Z,1015.43
2018-06-08T05:30:49.007Z,1015.47
2018-06-08T05:31:49.152Z,1015.43
2018-06-08T05:32:49.135Z,1015.42
2018-06-08T05:33:49.032Z,1015.45
2018-06-08T05:34:49.140Z,1015.44
2018-06-08T05:35:49.048Z,1015.47
2018-06-08T05:36:49.097Z,1015.49
2018-06-08T05:37:49.082Z,1015.41
2018-06-08T05:38:49.031Z,1015.45
2018-06-08T05:39:49.141Z,1015.4
2018-06-08T05:40:49.048Z,1015.43
2018-06-08T05:41:49.063Z,1015.38
2018-06-08T05:42:49.074Z,1015.43
2018-06-08T05:43:49.123Z,1015.41
2018-06-08T05:44:49.028Z,1015.39
2018-06-08T05:45:49.045Z,1015.4
2018-06-08T05:46:49.033Z,1015.42
2018-06-08T05:47:49.060Z,1015.46
2018-06-08T05:48:49.046Z,1015.45
2018-06-08T05:49:49.053Z,1015.42
2018-06-08T05:50:49.026Z,1015.47
2018-06-08T05:51:49.025Z,1015.41
2018-06-08T05:52:49.056Z,1015.44
2018-06-08T05:53:49.035Z,1015.44
2018-06-08T05:54:49.094Z,1015.46
2018-06-08T05:55:49.035Z,1015.44
2018-06-08T05:56:49.021Z,1015.45
2018-06-08T05:57:49.036Z,1015.45
2018-06-08T05:58:49.089Z,1015.48
2018-06-08T05:59:49.085Z,1015.48
2018-06-08T06:00:49.032Z,1015.48
2018-06-08T06:01:49.041Z,1015.46
2018-06-08T06:02:49.044Z,1015.48
2018-06-08T06:03:49.048Z,1015.47
2018-06-08T06:04:49.015Z,1015.47
2018-06-08T06:05:49.030Z,1015.43
2018-06-08T06:06:49.055Z,1015.41
2018-06-08T06:07:49.008Z,1015.52
2018-06-08T06:08:49.292Z,1015.51
2018-06-08T06:09:49.051Z,1015.51
2018-06-08T06:10:49.216Z,1015.48
2018-06-08T06:11:49.077Z,1015.52
2018-06-08T06:12:49.177Z,1015.53
2018-06-08T06:13:49.077Z,1015.51
2018-06-08T06:14:49.031Z,1015.51
2018-06-08T06:15:49.026Z,1015.53
2018-06-08T06:16:49.067Z,1015.54
2018-06-08T06:17:49.024Z,1015.62
2018-06-08T06:18:49.012Z,1015.62
2018-06-08T06:19:49.039Z,1015.6
2018-06-08T06:20:49.298Z,1015.64
2018-06-08T06:21:49.051Z,1015.65
2018-06-08T06:22:49.063Z,1015.66
2018-06-08T06:23:49.032Z,1015.68
2018-06-08T06:24:49.097Z,1015.71
2018-06-08T06:25:49.028Z,1015.65
2018-06-08T06:26:49.054Z,1015.7
2018-06-08T06:27:49.019Z,1015.69
2018-06-08T06:28:48.999Z,1015.67
2018-06-08T06:29:49.004Z,1015.67
2018-06-08T06:30:49.098Z,1015.69
2018-06-08T06:31:49.015Z,1015.69
2018-06-08T06:32:49.002Z,1015.69
2018-06-08T06:33:49.015Z,1015.75
2018-06-08T06:34:49.016Z,1015.69
2018-06-08T06:35:49.021Z,1015.7
2018-06-08T06:36:49.029Z,1015.72
2018-06-08T06:37:48.996Z,1015.67
2018-06-08T06:38:48.996Z,1015.7
2018-06-08T06:39:49.017Z,1015.72
2018-06-08T06:40:49.004Z,1015.66
2018-06-08T06:41:49.005Z,1015.68
2018-06-08T06:42:49.006Z,1015.71
2018-06-08T06:43:49.027Z,1015.7
2018-06-08T06:44:49.091Z,1015.69
2018-06-08T06:45:48.987Z,1015.69
2018-06-08T06:46:49.023Z,1015.7
2018-06-08T06:47:49.141Z,1015.71
2018-06-08T06:48:48.985Z,1015.68
2018-06-08T06:49:48.978Z,1015.68
2018-06-08T06:50:48.982Z,1015.65
2018-06-08T06:51:49.037Z,1015.65
2018-06-08T06:52:50.366Z,1015.68
2018-06-08T06:53:49.017Z,1015.7
2018-06-08T06:54:49.017Z,1015.68
2018-06-08T06:55:49.005Z,1015.69
2018-06-08T06:56:49.039Z,1015.69
2018-06-08T06:57:49.008Z,1015.67
2018-06-08T06:58:49.041Z,1015.71
2018-06-08T06:59:49.029Z,1015.68
2018-06-08T07:00:48.990Z,1015.69
2018-06-08T07:01:49.003Z,1015.71
2018-06-08T07:02:48.998Z,1015.69
2018-06-08T07:03:48.981Z,1015.69
2018-06-08T07:04:49.013Z,1015.7
2018-06-08T07:05:49.055Z,1015.63
2018-06-08T07:06:49.012Z,1015.67
2018-06-08T07:07:49.040Z,1015.66
2018-06-08T07:08:48.991Z,1015.65
2018-06-08T07:09:48.988Z,1015.66
2018-06-08T07:10:48.992Z,1015.64
2018-06-08T07:11:49.070Z,1015.65
2018-06-08T07:12:49.200Z,1015.66
2018-06-08T07:13:49.002Z,1015.66
2018-06-08T07:14:48.989Z,1015.65
2018-06-08T07:15:49.011Z,1015.66
2018-06-08T07:16:49.209Z,1015.61
2018-06-08T07:17:49.268Z,1015.6
2018-06-08T07:18:49.509Z,1015.63
2018-06-08T07:19:49.011Z,1015.64
2018-06-08T07:20:48.991Z,1015.66
2018-06-08T07:21:49.187Z,1015.66
2018-06-08T07:22:48.994Z,1015.64
2018-06-08T07:23:48.989Z,1015.63
2018-06-08T07:24:49.115Z,1015.69
2018-06-08T07:25:49.007Z,1015.67
2018-06-08T07:26:49.004Z,1015.64
2018-06-08T07:27:49.078Z,1015.67
2018-06-08T07:28:49.040Z,1015.66
2018-06-08T07:29:48.988Z,1015.61
2018-06-08T07:30:49.026Z,1015.66
2018-06-08T07:31:49.471Z,1015.66
2018-06-08T07:32:49.027Z,1015.65
2018-06-08T07:33:48.996Z,1015.66
2018-06-08T07:34:49.002Z,1015.69
2018-06-08T07:35:49.034Z,1015.71
2018-06-08T07:36:49.009Z,1015.7
2018-06-08T07:37:48.988Z,1015.69
2018-06-08T07:38:49.005Z,1015.73
2018-06-08T07:39:49.070Z,1015.73
2018-06-08T07:40:48.997Z,1015.72
2018-06-08T07:41:48.993Z,1015.72
2018-06-08T07:42:48.978Z,1015.76
2018-06-08T07:43:49.022Z,1015.75
2018-06-08T07:44:48.994Z,1015.74
2018-06-08T07:45:49.002Z,1015.76
2018-06-08T07:46:49.169Z,1015.75
2018-06-08T07:47:48.975Z,1015.76
2018-06-08T07:48:49.004Z,1015.77
2018-06-08T07:49:48.994Z,1015.72
2018-06-08T07:50:48.986Z,1015.75
2018-06-08T07:51:49.029Z,1015.73
2018-06-08T07:52:48.986Z,1015.72
2018-06-08T07:53:49.236Z,1015.7
2018-06-08T07:54:48.994Z,1015.66
2018-06-08T07:55:49.056Z,1015.67
2018-06-08T07:56:48.991Z,1015.64
2018-06-08T07:57:49.007Z,1015.58
2018-06-08T07:58:48.972Z,1015.58
2018-06-08T07:59:49.000Z,1015.56
2018-06-08T08:00:49.021Z,1015.53
2018-06-08T08:01:49.004Z,1015.55
2018-06-08T08:02:48.980Z,1015.53
2018-06-08T08:03:49.051Z,1015.52
2018-06-08T08:04:48.976Z,1015.51
2018-06-08T08:05:48.987Z,1015.49
2018-06-08T08:06:49.018Z,1015.53
2018-06-08T08:07:48.980Z,1015.5
2018-06-08T08:08:49.011Z,1015.52
2018-06-08T08:09:48.996Z,1015.45
2018-06-08T08:10:48.960Z,1015.45
2018-06-08T08:11:49.000Z,1015.47
2018-06-08T08:12:49.009Z,1015.46
2018-06-08T08:13:48.974Z,1015.47
2018-06-08T08:14:48.995Z,1015.45
2018-06-08T08:15:48.969Z,1015.4
2018-06-08T08:16:49.360Z,1015.41
2018-06-08T08:17:48.985Z,1015.41
2018-06-08T08:18:49.097Z,1015.38
2018-06-08T08:19:49.146Z,1015.42
2018-06-08T08:20:48.976Z,1015.43
2018-06-08T08:21:48.971Z,1015.38
2018-06-08T08:22:48.982Z,1015.36
2018-06-08T08:23:49.011Z,1015.38
2018-06-08T08:24:48.979Z,1015.35
2018-06-08T08:25:49.338Z,1015.36
2018-06-08T08:26:49.070Z,1015.35
2018-06-08T08:27:49.006Z,1015.31
2018-06-08T08:28:48.982Z,1015.32
2018-06-08T08:29:48.950Z,1015.3
2018-06-08T08:30:49.051Z,1015.27
2018-06-08T08:31:48.959Z,1015.26
2018-06-08T08:32:49.043Z,1015.25
2018-06-08T08:33:48.971Z,1015.26
2018-06-08T08:34:48.988Z,1015.19
2018-06-08T08:35:49.071Z,1015.19
2018-06-08T08:36:48.980Z,1015.18
2018-06-08T08:37:48.973Z,1015.14
2018-06-08T08:38:49.075Z,1015.18
2018-06-08T08:39:49.059Z,1015.17
2018-06-08T08:40:49.147Z,1015.15
2018-06-08T08:41:49.115Z,1015.15
2018-06-08T08:42:49.163Z,1015.19
2018-06-08T08:43:48.944Z,1015.21
2018-06-08T08:44:48.955Z,1015.2
2018-06-08T08:45:48.963Z,1015.18
2018-06-08T08:46:48.963Z,1015.17
2018-06-08T08:47:48.958Z,1015.2
2018-06-08T08:48:49.009Z,1015.21
2018-06-08T08:49:48.959Z,1015.17
2018-06-08T08:50:48.997Z,1015.19
2018-06-08T08:51:48.971Z,1015.21
2018-06-08T08:52:48.947Z,1015.17
2018-06-08T08:53:48.956Z,1015.18
2018-06-08T08:54:48.959Z,1015.17
2018-06-08T08:55:48.955Z,1015.13
2018-06-08T08:56:49.037Z,1015.1
2018-06-08T08:57:48.984Z,1015.12
2018-06-08T08:58:48.935Z,1015.09
2018-06-08T08:59:48.983Z,1015.13
2018-06-08T09:00:48.941Z,1015.09
2018-06-08T09:01:48.974Z,1015.1
2018-06-08T09:02:48.979Z,1015.1
2018-06-08T09:03:49.045Z,1015.1
2018-06-08T09:04:48.956Z,1015.07
2018-06-08T09:05:48.983Z,1015.08
2018-06-08T09:06:48.993Z,1015.04
2018-06-08T09:07:48.945Z,1015.05
2018-06-08T09:08:48.949Z,1015
2018-06-08T09:09:48.994Z,1014.97
2018-06-08T09:10:48.968Z,1014.94
2018-06-08T09:11:48.962Z,1014.93
2018-06-08T09:12:48.969Z,1014.91
2018-06-08T09:13:48.938Z,1014.9
2018-06-08T09:14:49.002Z,1014.89
2018-06-08T09:15:49.052Z,1014.88
2018-06-08T09:16:48.950Z,1014.86
2018-06-08T09:17:48.963Z,1014.87
2018-06-08T09:18:48.966Z,1014.83
2018-06-08T09:19:49.021Z,1014.83
2018-06-08T09:20:49.167Z,1014.85
2018-06-08T09:21:49.182Z,1014.84
2018-06-08T09:22:49.132Z,1014.8
2018-06-08T09:23:49.046Z,1014.81
2018-06-08T09:24:49.053Z,1014.8
2018-06-08T09:25:49.079Z,1014.79
2018-06-08T09:26:49.032Z,1014.78
2018-06-08T09:27:48.970Z,1014.73
2018-06-08T09:28:48.950Z,1014.76
2018-06-08T09:29:48.985Z,1014.74
2018-06-08T09:30:48.949Z,1014.74
2018-06-08T09:31:48.947Z,1014.76
2018-06-08T09:32:48.947Z,1014.78
2018-06-08T09:33:49.123Z,1014.78
2018-06-08T09:34:49.111Z,1014.74
2018-06-08T09:35:48.977Z,1014.8
2018-06-08T09:36:49.042Z,1014.81
2018-06-08T09:37:48.920Z,1014.82
2018-06-08T09:38:48.953Z,1014.93
2018-06-08T09:39:48.949Z,1014.9
2018-06-08T09:40:48.956Z,1014.93
2018-06-08T09:41:48.975Z,1014.89
2018-06-08T09:42:48.931Z,1014.87
2018-06-08T09:43:49.020Z,1014.86
2018-06-08T09:44:48.982Z,1014.83
2018-06-08T09:45:48.966Z,1014.86
2018-06-08T09:46:48.956Z,1014.8
2018-06-08T09:47:49.040Z,1014.79
2018-06-08T09:48:49.019Z,1014.74
2018-06-08T09:49:48.969Z,1014.74
2018-06-08T09:50:48.999Z,1014.72
2018-06-08T09:51:48.957Z,1014.73
2018-06-08T09:52:48.933Z,1014.76
2018-06-08T09:53:48.953Z,1014.78
2018-06-08T09:54:49.043Z,1014.75
2018-06-08T09:55:48.966Z,1014.74
2018-06-08T09:56:48.955Z,1014.75
2018-06-08T09:57:48.948Z,1014.75
2018-06-08T09:58:48.960Z,1014.7
2018-06-08T09:59:48.943Z,1014.71
2018-06-08T10:00:48.959Z,1014.69
2018-06-08T10:01:49.009Z,1014.7
2018-06-08T10:02:48.946Z,1014.69
2018-06-08T10:03:48.976Z,1014.69
2018-06-08T10:04:48.946Z,1014.71
2018-06-08T10:05:48.956Z,1014.7
2018-06-08T10:06:48.959Z,1014.69
2018-06-08T10:07:48.954Z,1014.7
2018-06-08T10:08:48.985Z,1014.7
2018-06-08T10:09:48.974Z,1014.72
2018-06-08T10:10:49.000Z,1014.73
2018-06-08T10:11:48.979Z,1014.7
2018-06-08T10:12:49.013Z,1014.72
2018-06-08T10:13:49.126Z,1014.69
2018-06-08T10:14:48.941Z,1014.7
2018-06-08T10:15:48.932Z,1014.71
2018-06-08T10:16:48.978Z,1014.71
2018-06-08T10:17:48.962Z,1014.7
2018-06-08T10:18:48.935Z,1014.72
2018-06-08T10:19:48.977Z,1014.69
2018-06-08T10:20:48.933Z,1014.67
2018-06-08T10:21:48.988Z,1014.69
2018-06-08T10:22:48.950Z,1014.69
2018-06-08T10:23:48.925Z,1014.72
2018-06-08T10:24:48.938Z,1014.69
2018-06-08T10:25:48.945Z,1014.7
2018-06-08T10:26:48.943Z,1014.71
2018-06-08T10:27:48.943Z,1014.69
2018-06-08T10:28:48.958Z,1014.7
2018-06-08T10:29:48.960Z,1014.65
2018-06-08T10:30:49.211Z,1014.69
2018-06-08T10:31:48.964Z,1014.64
2018-06-08T10:32:48.949Z,1014.69
2018-06-08T10:33:48.972Z,1014.68
2018-06-08T10:34:48.958Z,1014.69
2018-06-08T10:35:48.934Z,1014.7
2018-06-08T10:36:48.966Z,1014.65
2018-06-08T10:37:48.933Z,1014.65
2018-06-08T10:38:49.124Z,1014.62
2018-06-08T10:39:48.968Z,1014.59
2018-06-08T10:40:49.122Z,1014.57
2018-06-08T10:41:48.937Z,1014.61
2018-06-08T10:42:49.010Z,1014.61
2018-06-08T10:43:48.959Z,1014.64
2018-06-08T10:44:48.981Z,1014.63
2018-06-08T10:45:48.948Z,1014.62
2018-06-08T10:46:48.943Z,1014.6
2018-06-08T10:47:48.940Z,1014.62
2018-06-08T10:48:49.087Z,1014.59
2018-06-08T10:49:48.962Z,1014.54
2018-06-08T10:50:48.977Z,1014.56
2018-06-08T10:51:49.021Z,1014.56
2018-06-08T10:52:49.033Z,1014.55
2018-06-08T10:53:48.977Z,1014.53
2018-06-08T10:54:48.931Z,1014.5
2018-06-08T10:55:48.978Z,1014.49
2018-06-08T10:56:48.999Z,1014.51
2018-06-08T10:57:49.010Z,1014.47
2018-06-08T10:58:48.984Z,1014.47
2018-06-08T10:59:56.375Z,1014.5
2018-06-08T11:00:48.959Z,1014.48
2018-06-08T11:01:48.958Z,1014.51
2018-06-08T11:02:48.961Z,1014.48
2018-06-08T11:03:49.028Z,1014.51
2018-06-08T11:04:48.977Z,1014.45
2018-06-08T11:05:48.975Z,1014.45
2018-06-08T11:06:48.943Z,1014.46
2018-06-08T11:07:48.971Z,1014.43
2018-06-08T11:08:48.937Z,1014.44
2018-06-08T11:09:48.959Z,1014.46
2018-06-08T11:10:48.992Z,1014.4
2018-06-08T11:11:48.933Z,1014.4
2018-06-08T11:12:48.968Z,1014.38
2018-06-08T11:13:48.961Z,1014.42
2018-06-08T11:14:48.920Z,1014.38
2018-06-08T11:15:48.959Z,1014.31
2018-06-08T11:16:48.907Z,1014.3
2018-06-08T11:17:48.912Z,1014.29
2018-06-08T11:18:48.985Z,1014.29
2018-06-08T11:19:49.092Z,1014.26
2018-06-08T11:20:48.995Z,1014.27
2018-06-08T11:21:48.929Z,1014.25
2018-06-08T11:22:48.949Z,1014.21
2018-06-08T11:23:48.943Z,1014.24
2018-06-08T11:24:48.976Z,1014.18
2018-06-08T11:25:48.975Z,1014.16
2018-06-08T11:26:48.950Z,1014.11
2018-06-08T11:27:48.988Z,1014.15
2018-06-08T11:28:49.014Z,1014.11
2018-06-08T11:29:48.958Z,1014.07
2018-06-08T11:30:48.962Z,1014.07
2018-06-08T11:31:48.954Z,1014.07
2018-06-08T11:32:48.936Z,1014.02
2018-06-08T11:33:49.029Z,1014.01
2018-06-08T11:34:48.897Z,1014.02
2018-06-08T11:35:48.982Z,1014.01
2018-06-08T11:36:48.935Z,1014.02
2018-06-08T11:37:48.960Z,1013.99
2018-06-08T11:38:48.961Z,1013.99
2018-06-08T11:39:48.953Z,1013.96
2018-06-08T11:40:48.938Z,1013.96
2018-06-08T11:41:48.921Z,1013.96
2018-06-08T11:42:48.974Z,1013.93
2018-06-08T11:43:48.930Z,1013.95
2018-06-08T11:44:48.900Z,1013.86
2018-06-08T11:45:49.089Z,1013.9
2018-06-08T11:46:49.016Z,1013.9
2018-06-08T11:47:48.969Z,1013.83
2018-06-08T11:48:48.919Z,1013.88
2018-06-08T11:49:48.916Z,1013.85
2018-06-08T11:50:48.973Z,1013.81
2018-06-08T11:51:48.921Z,1013.74
2018-06-08T11:52:48.999Z,1013.77
2018-06-08T11:53:48.937Z,1013.72
2018-06-08T11:54:48.952Z,1013.69
2018-06-08T11:55:48.923Z,1013.67
2018-06-08T11:56:48.918Z,1013.57
2018-06-08T11:57:48.945Z,1013.56
2018-06-08T11:58:48.984Z,1013.53
2018-06-08T11:59:48.906Z,1013.52
2018-06-08T12:00:48.951Z,1013.47
2018-06-08T12:01:49.048Z,1013.44
2018-06-08T12:02:48.947Z,1013.4
2018-06-08T12:03:48.971Z,1013.41
2018-06-08T12:04:48.937Z,1013.39
2018-06-08T12:05:48.926Z,1013.43
2018-06-08T12:06:49.053Z,1013.39
2018-06-08T12:07:49.012Z,1013.39
2018-06-08T12:08:48.925Z,1013.36